sensor_id;sensor_type;location;lat;lon;timestamp;pressure;altitude;pressure_sealevel;temperature;humidity
20043;BME280;10182;52.896;6.496;2023-03-05T00:04:24;102026.78;;;2.30;100.00
20043;BME280;10182;52.896;6.496;2023-03-05T00:09:26;102021.53;;;2.27;100.00
20043;BME280;10182;52.896;6.496;2023-03-05T00:14:29;102006.72;;;2.29;100.00
20043;BME280;10182;52.896;6.496;2023-03-05T00:19:31;102007.56;;;2.25;100.00
20043;BME280;10182;52.896;6.496;2023-03-05T00:24:34;102011.09;;;2.32;100.00
20043;BME280;10182;52.896;6.496;2023-03-05T00:29:37;102016.31;;;2.29;100.00
20043;BME280;10182;52.896;6.496;2023-03-05T00:34:42;102011.91;;;2.25;100.00
20043;BME280;10182;52.896;6.496;2023-03-05T00:39:44;102001.47;;;2.25;100.00
20043;BME280;10182;52.896;6.496;2023-03-05T00:44:48;101995.34;;;2.24;100.00
20043;BME280;10182;52.896;6.496;2023-03-05T00:49:53;101983.09;;;2.20;100.00
20043;BME280;10182;52.896;6.496;2023-03-05T00:54:55;101977.00;;;2.18;100.00
20043;BME280;10182;52.896;6.496;2023-03-05T00:59:58;101967.41;;;2.17;100.00
20043;BME280;10182;52.896;6.496;2023-03-05T01:05:00;101960.41;;;2.16;100.00
20043;BME280;10182;52.896;6.496;2023-03-05T01:10:06;101952.56;;;2.16;100.00
20043;BME280;10182;52.896;6.496;2023-03-05T01:15:10;101945.56;;;2.12;100.00
20043;BME280;10182;52.896;6.496;2023-03-05T01:20:13;101953.41;;;2.09;100.00
20043;BME280;10182;52.896;6.496;2023-03-05T01:25:15;101942.03;;;2.03;100.00
20043;BME280;10182;52.896;6.496;2023-03-05T01:30:19;101941.16;;;2.01;100.00
20043;BME280;10182;52.896;6.496;2023-03-05T01:35:22;101928.94;;;1.99;100.00
20043;BME280;10182;52.896;6.496;2023-03-05T01:40:27;101922.78;;;1.97;100.00
20043;BME280;10182;52.896;6.496;2023-03-05T01:45:31;101913.19;;;1.91;100.00
20043;BME280;10182;52.896;6.496;2023-03-05T01:50:33;101900.06;;;1.85;100.00
20043;BME280;10182;52.896;6.496;2023-03-05T01:55:35;101894.78;;;1.80;100.00
20043;BME280;10182;52.896;6.496;2023-03-05T02:00:44;101899.16;;;1.81;100.00
20043;BME280;10182;52.896;6.496;2023-03-05T02:05:47;101886.09;;;1.83;100.00
20043;BME280;10182;52.896;6.496;2023-03-05T02:10:50;101891.31;;;1.81;100.00
20043;BME280;10182;52.896;6.496;2023-03-05T02:15:57;101876.50;;;1.77;100.00
20043;BME280;10182;52.896;6.496;2023-03-05T02:21:03;101877.38;;;1.79;100.00
20043;BME280;10182;52.896;6.496;2023-03-05T02:26:08;101868.66;;;1.79;100.00
20043;BME280;10182;52.896;6.496;2023-03-05T02:31:13;101866.00;;;1.73;100.00
20043;BME280;10182;52.896;6.496;2023-03-05T02:36:17;101853.81;;;1.75;100.00
20043;BME280;10182;52.896;6.496;2023-03-05T02:41:19;101849.41;;;1.67;100.00
20043;BME280;10182;52.896;6.496;2023-03-05T02:46:21;101843.25;;;1.58;100.00
20043;BME280;10182;52.896;6.496;2023-03-05T02:51:24;101832.81;;;1.58;100.00
20043;BME280;10182;52.896;6.496;2023-03-05T02:56:26;101827.50;;;1.50;100.00
20043;BME280;10182;52.896;6.496;2023-03-05T03:01:30;101823.19;;;1.52;100.00
20043;BME280;10182;52.896;6.496;2023-03-05T03:06:34;101807.53;;;1.57;100.00
20043;BME280;10182;52.896;6.496;2023-03-05T03:11:36;101804.94;;;1.58;100.00
20043;BME280;10182;52.896;6.496;2023-03-05T03:16:38;101791.88;;;1.60;100.00
20043;BME280;10182;52.896;6.496;2023-03-05T03:21:41;101798.03;;;1.63;100.00
20043;BME280;10182;52.896;6.496;2023-03-05T03:26:44;101786.72;;;1.64;100.00
20043;BME280;10182;52.896;6.496;2023-03-05T03:31:46;101782.38;;;1.68;100.00
20043;BME280;10182;52.896;6.496;2023-03-05T03:36:50;101777.19;;;1.69;100.00
20043;BME280;10182;52.896;6.496;2023-03-05T03:41:52;101773.66;;;1.69;100.00
20043;BME280;10182;52.896;6.496;2023-03-05T03:46:54;101765.84;;;1.71;100.00
20043;BME280;10182;52.896;6.496;2023-03-05T03:51:58;101769.34;;;1.71;100.00
20043;BME280;10182;52.896;6.496;2023-03-05T03:57:02;101764.97;;;1.72;100.00
20043;BME280;10182;52.896;6.496;2023-03-05T04:02:04;101755.41;;;1.71;100.00
20043;BME280;10182;52.896;6.496;2023-03-05T04:07:07;101748.47;;;1.73;100.00
20043;BME280;10182;52.896;6.496;2023-03-05T04:12:09;101737.97;;;1.68;100.00
20043;BME280;10182;52.896;6.496;2023-03-05T04:17:16;101726.66;;;1.69;100.00
20043;BME280;10182;52.896;6.496;2023-03-05T04:22:20;101732.72;;;1.63;100.00
20043;BME280;10182;52.896;6.496;2023-03-05T04:27:22;101723.13;;;1.62;100.00
20043;BME280;10182;52.896;6.496;2023-03-05T04:32:24;101721.41;;;1.64;100.00
20043;BME280;10182;52.896;6.496;2023-03-05T04:37:29;101715.28;;;1.61;100.00
20043;BME280;10182;52.896;6.496;2023-03-05T04:42:31;101712.66;;;1.61;100.00
20043;BME280;10182;52.896;6.496;2023-03-05T04:47:36;101715.28;;;1.59;100.00
20043;BME280;10182;52.896;6.496;2023-03-05T04:52:44;101715.28;;;1.62;100.00
20043;BME280;10182;52.896;6.496;2023-03-05T04:57:46;101711.81;;;1.62;100.00
20043;BME280;10182;52.896;6.496;2023-03-05T05:02:49;101703.09;;;1.61;100.00
20043;BME280;10182;52.896;6.496;2023-03-05T05:07:54;101687.44;;;1.63;100.00
20043;BME280;10182;52.896;6.496;2023-03-05T05:12:57;101696.16;;;1.62;100.00
20043;BME280;10182;52.896;6.496;2023-03-05T05:17:59;101693.53;;;1.60;100.00
20043;BME280;10182;52.896;6.496;2023-03-05T05:23:02;101701.38;;;1.60;100.00
20043;BME280;10182;52.896;6.496;2023-03-05T05:28:05;101690.91;;;1.62;100.00
20043;BME280;10182;52.896;6.496;2023-03-05T05:33:07;101695.25;;;1.60;100.00
20043;BME280;10182;52.896;6.496;2023-03-05T05:38:11;101689.13;;;1.53;100.00
20043;BME280;10182;52.896;6.496;2023-03-05T05:43:12;101684.72;;;1.49;100.00
20043;BME280;10182;52.896;6.496;2023-03-05T05:48:14;101683.00;;;1.49;100.00
20043;BME280;10182;52.896;6.496;2023-03-05T05:53:17;101684.72;;;1.46;100.00
20043;BME280;10182;52.896;6.496;2023-03-05T05:58:19;101695.16;;;1.41;100.00
20043;BME280;10182;52.896;6.496;2023-03-05T06:03:21;101681.25;;;1.42;100.00
20043;BME280;10182;52.896;6.496;2023-03-05T06:08:25;101680.41;;;1.46;100.00
20043;BME280;10182;52.896;6.496;2023-03-05T06:13:27;101683.88;;;1.48;100.00
20043;BME280;10182;52.896;6.496;2023-03-05T06:18:29;101670.81;;;1.51;100.00
20043;BME280;10182;52.896;6.496;2023-03-05T06:23:33;101668.25;;;1.55;100.00
20043;BME280;10182;52.896;6.496;2023-03-05T06:28:35;101662.13;;;1.54;100.00
20043;BME280;10182;52.896;6.496;2023-03-05T06:33:37;101665.66;;;1.56;100.00
20043;BME280;10182;52.896;6.496;2023-03-05T06:38:41;101659.53;;;1.56;100.00
20043;BME280;10182;52.896;6.496;2023-03-05T06:43:44;101656.91;;;1.54;100.00
20043;BME280;10182;52.896;6.496;2023-03-05T06:48:47;101658.66;;;1.52;100.00
20043;BME280;10182;52.896;6.496;2023-03-05T06:53:52;101653.41;;;1.49;100.00
20043;BME280;10182;52.896;6.496;2023-03-05T06:58:55;101655.13;;;1.45;100.00
20043;BME280;10182;52.896;6.496;2023-03-05T07:03:57;101659.47;;;1.40;100.00
20043;BME280;10182;52.896;6.496;2023-03-05T07:09:05;101652.53;;;1.44;100.00
20043;BME280;10182;52.896;6.496;2023-03-05T07:14:07;101655.13;;;1.42;100.00
20043;BME280;10182;52.896;6.496;2023-03-05T07:19:10;101645.56;;;1.44;100.00
20043;BME280;10182;52.896;6.496;2023-03-05T07:24:13;101647.31;;;1.50;100.00
20043;BME280;10182;52.896;6.496;2023-03-05T07:29:15;101642.16;;;1.61;100.00
20043;BME280;10182;52.896;6.496;2023-03-05T07:34:17;101644.81;;;1.68;100.00
20043;BME280;10182;52.896;6.496;2023-03-05T07:39:21;101639.63;;;1.81;100.00
20043;BME280;10182;52.896;6.496;2023-03-05T07:44:23;101637.03;;;1.85;100.00
20043;BME280;10182;52.896;6.496;2023-03-05T07:49:25;101634.41;;;1.89;100.00
20043;BME280;10182;52.896;6.496;2023-03-05T07:54:28;101637.06;;;1.95;100.00
20043;BME280;10182;52.896;6.496;2023-03-05T07:59:30;101635.34;;;2.00;100.00
20043;BME280;10182;52.896;6.496;2023-03-05T08:04:32;101640.63;;;2.14;100.00
20043;BME280;10182;52.896;6.496;2023-03-05T08:09:35;101630.19;;;2.22;100.00
20043;BME280;10182;52.896;6.496;2023-03-05T08:14:39;101631.06;;;2.34;100.00
20043;BME280;10182;52.896;6.496;2023-03-05T08:19:40;101624.09;;;2.47;100.00
20043;BME280;10182;52.896;6.496;2023-03-05T08:24:44;101628.47;;;2.59;100.00
20043;BME280;10182;52.896;6.496;2023-03-05T08:29:45;101621.50;;;2.70;100.00
20043;BME280;10182;52.896;6.496;2023-03-05T08:34:48;101615.41;;;2.78;100.00
20043;BME280;10182;52.896;6.496;2023-03-05T08:39:51;101615.41;;;2.81;100.00
20043;BME280;10182;52.896;6.496;2023-03-05T08:44:54;101605.78;;;2.94;100.00
20043;BME280;10182;52.896;6.496;2023-03-05T08:49:58;101595.28;;;3.11;100.00
20043;BME280;10182;52.896;6.496;2023-03-05T08:55:01;101593.50;;;3.30;100.00
20043;BME280;10182;52.896;6.496;2023-03-05T09:00:05;101592.59;;;3.40;100.00
20043;BME280;10182;52.896;6.496;2023-03-05T09:05:08;101589.91;;;3.52;100.00
20043;BME280;10182;52.896;6.496;2023-03-05T09:10:12;101581.13;;;3.72;100.00
20043;BME280;10182;52.896;6.496;2023-03-05T09:15:14;101583.63;;;3.89;100.00
20043;BME280;10182;52.896;6.496;2023-03-05T09:20:17;101573.19;;;3.86;100.00
20043;BME280;10182;52.896;6.496;2023-03-05T09:25:20;101568.72;;;3.99;100.00
20043;BME280;10182;52.896;6.496;2023-03-05T09:30:23;101563.50;;;3.96;100.00
20043;BME280;10182;52.896;6.496;2023-03-05T09:35:25;101554.66;;;4.11;100.00
20043;BME280;10182;52.896;6.496;2023-03-05T09:40:36;101554.56;;;4.26;100.00
20043;BME280;10182;52.896;6.496;2023-03-05T09:45:43;101532.75;;;4.18;100.00
20043;BME280;10182;52.896;6.496;2023-03-05T09:50:50;101541.38;;;4.35;100.00
20043;BME280;10182;52.896;6.496;2023-03-05T09:55:57;101532.34;;;4.69;100.00
20043;BME280;10182;52.896;6.496;2023-03-05T10:01:03;101542.94;;;4.60;100.00
20043;BME280;10182;52.896;6.496;2023-03-05T10:06:15;101529.59;;;4.81;100.00
20043;BME280;10182;52.896;6.496;2023-03-05T10:11:38;101523.66;;;4.62;100.00
20043;BME280;10182;52.896;6.496;2023-03-05T10:17:07;101513.69;;;4.95;100.00
20043;BME280;10182;52.896;6.496;2023-03-05T10:22:17;101508.53;;;4.86;100.00
20043;BME280;10182;52.896;6.496;2023-03-05T10:27:38;101505.00;;;4.88;100.00
20043;BME280;10182;52.896;6.496;2023-03-05T10:32:49;101497.47;;;5.34;100.00
20043;BME280;10182;52.896;6.496;2023-03-05T10:43:28;101486.25;;;5.21;100.00
20043;BME280;10182;52.896;6.496;2023-03-05T10:48:39;101500.94;;;4.56;100.00
20043;BME280;10182;52.896;6.496;2023-03-05T10:53:50;101514.72;;;3.76;100.00
20043;BME280;10182;52.896;6.496;2023-03-05T10:58:55;101510.38;;;3.67;100.00
20043;BME280;10182;52.896;6.496;2023-03-05T11:03:58;101497.22;;;3.75;100.00
20043;BME280;10182;52.896;6.496;2023-03-05T11:09:21;101484.09;;;3.78;100.00
20043;BME280;10182;52.896;6.496;2023-03-05T11:14:29;101475.28;;;3.90;100.00
20043;BME280;10182;52.896;6.496;2023-03-05T11:19:33;101465.72;;;3.81;100.00
20043;BME280;10182;52.896;6.496;2023-03-05T11:24:39;101453.41;;;3.96;100.00
20043;BME280;10182;52.896;6.496;2023-03-05T11:29:47;101445.34;;;4.17;100.00
20043;BME280;10182;52.896;6.496;2023-03-05T11:34:50;101439.00;;;4.40;100.00
20043;BME280;10182;52.896;6.496;2023-03-05T11:40:14;101433.69;;;4.49;100.00
20043;BME280;10182;52.896;6.496;2023-03-05T11:45:24;101421.19;;;4.71;100.00
20043;BME280;10182;52.896;6.496;2023-03-05T11:50:29;101415.56;;;5.02;100.00
20043;BME280;10182;52.896;6.496;2023-03-05T11:55:35;101403.22;;;5.11;100.00
20043;BME280;10182;52.896;6.496;2023-03-05T12:00:43;101379.91;;;5.47;100.00
20043;BME280;10182;52.896;6.496;2023-03-05T12:05:47;101366.59;;;5.59;100.00
20043;BME280;10182;52.896;6.496;2023-03-05T12:10:51;101364.16;;;5.48;100.00
20043;BME280;10182;52.896;6.496;2023-03-05T12:16:08;101355.38;;;5.48;100.00
20043;BME280;10182;52.896;6.496;2023-03-05T12:21:22;101341.72;;;5.80;100.00
20043;BME280;10182;52.896;6.496;2023-03-05T12:27:05;101342.13;;;6.08;100.00
20043;BME280;10182;52.896;6.496;2023-03-05T12:38:17;101338.22;;;4.61;100.00
20043;BME280;10182;52.896;6.496;2023-03-05T12:43:30;101343.25;;;4.77;100.00
20043;BME280;10182;52.896;6.496;2023-03-05T12:48:43;101334.28;;;4.96;100.00
20043;BME280;10182;52.896;6.496;2023-03-05T12:53:49;101323.44;;;5.18;100.00
20043;BME280;10182;52.896;6.496;2023-03-05T12:58:54;101310.44;;;5.65;100.00
20043;BME280;10182;52.896;6.496;2023-03-05T13:04:04;101296.91;;;5.35;100.00
20043;BME280;10182;52.896;6.496;2023-03-05T13:09:22;101294.69;;;5.10;100.00
20043;BME280;10182;52.896;6.496;2023-03-05T13:14:39;101283.00;;;5.28;100.00
20043;BME280;10182;52.896;6.496;2023-03-05T13:19:44;101286.41;;;5.35;100.00
20043;BME280;10182;52.896;6.496;2023-03-05T13:25:03;101271.53;;;5.34;100.00
20043;BME280;10182;52.896;6.496;2023-03-05T13:30:20;101275.53;;;5.55;100.00
20043;BME280;10182;52.896;6.496;2023-03-05T13:35:23;101257.16;;;5.56;100.00
20043;BME280;10182;52.896;6.496;2023-03-05T13:40:28;101258.00;;;5.57;100.00
20043;BME280;10182;52.896;6.496;2023-03-05T13:45:31;101261.84;;;5.37;100.00
20043;BME280;10182;52.896;6.496;2023-03-05T13:50:37;101248.06;;;5.23;100.00
20043;BME280;10182;52.896;6.496;2023-03-05T13:55:40;101247.78;;;5.38;100.00
20043;BME280;10182;52.896;6.496;2023-03-05T14:00:43;101247.84;;;5.35;100.00
20043;BME280;10182;52.896;6.496;2023-03-05T14:05:50;101244.06;;;5.00;100.00
20043;BME280;10182;52.896;6.496;2023-03-05T14:10:55;101238.25;;;4.78;100.00
20043;BME280;10182;52.896;6.496;2023-03-05T14:16:05;101229.38;;;4.87;100.00
20043;BME280;10182;52.896;6.496;2023-03-05T14:21:09;101220.59;;;4.88;100.00
20043;BME280;10182;52.896;6.496;2023-03-05T14:26:29;101218.81;;;4.90;100.00
20043;BME280;10182;52.896;6.496;2023-03-05T14:31:38;101208.41;;;4.84;100.00
20043;BME280;10182;52.896;6.496;2023-03-05T14:36:47;101200.59;;;4.81;100.00
20043;BME280;10182;52.896;6.496;2023-03-05T14:41:54;101189.91;;;4.91;100.00
20043;BME280;10182;52.896;6.496;2023-03-05T14:46:56;101184.69;;;4.90;100.00
20043;BME280;10182;52.896;6.496;2023-03-05T14:52:01;101182.03;;;4.91;100.00
20043;BME280;10182;52.896;6.496;2023-03-05T14:57:05;101178.56;;;4.91;100.00
20043;BME280;10182;52.896;6.496;2023-03-05T15:02:13;101166.41;;;4.85;100.00
20043;BME280;10182;52.896;6.496;2023-03-05T15:07:17;101164.53;;;4.90;100.00
20043;BME280;10182;52.896;6.496;2023-03-05T15:12:21;101163.69;;;4.90;100.00
20043;BME280;10182;52.896;6.496;2023-03-05T15:17:31;101148.69;;;4.98;100.00
20043;BME280;10182;52.896;6.496;2023-03-05T15:22:37;101131.41;;;4.85;100.00
20043;BME280;10182;52.896;6.496;2023-03-05T15:27:46;101128.59;;;4.96;100.00
20043;BME280;10182;52.896;6.496;2023-03-05T15:32:49;101126.84;;;4.95;100.00
20043;BME280;10182;52.896;6.496;2023-03-05T15:37:51;101116.31;;;4.98;100.00
20043;BME280;10182;52.896;6.496;2023-03-05T15:42:55;101119.47;;;5.17;100.00
20043;BME280;10182;52.896;6.496;2023-03-05T15:47:57;101110.69;;;5.18;100.00
20043;BME280;10182;52.896;6.496;2023-03-05T15:52:59;101105.50;;;5.15;100.00
20043;BME280;10182;52.896;6.496;2023-03-05T15:58:02;101107.94;;;5.25;100.00
20043;BME280;10182;52.896;6.496;2023-03-05T16:03:04;101090.19;;;4.90;100.00
20043;BME280;10182;52.896;6.496;2023-03-05T16:08:11;101087.66;;;4.84;100.00
20043;BME280;10182;52.896;6.496;2023-03-05T16:13:16;101084.34;;;4.72;100.00
20043;BME280;10182;52.896;6.496;2023-03-05T16:18:18;101070.56;;;4.61;100.00
20043;BME280;10182;52.896;6.496;2023-03-05T16:23:20;101081.28;;;4.47;100.00
20043;BME280;10182;52.896;6.496;2023-03-05T16:28:24;101068.09;;;4.52;100.00
20043;BME280;10182;52.896;6.496;2023-03-05T16:33:31;101067.41;;;4.40;100.00
20043;BME280;10182;52.896;6.496;2023-03-05T16:38:33;101075.31;;;4.36;100.00
20043;BME280;10182;52.896;6.496;2023-03-05T16:43:37;101064.09;;;4.26;100.00
20043;BME280;10182;52.896;6.496;2023-03-05T16:48:45;101059.00;;;4.17;100.00
20043;BME280;10182;52.896;6.496;2023-03-05T16:53:49;101049.50;;;4.10;100.00
20043;BME280;10182;52.896;6.496;2023-03-05T16:58:54;101040.84;;;4.06;100.00
20043;BME280;10182;52.896;6.496;2023-03-05T17:03:57;101038.25;;;4.01;100.00
20043;BME280;10182;52.896;6.496;2023-03-05T17:08:59;101039.25;;;3.94;100.00
20043;BME280;10182;52.896;6.496;2023-03-05T17:14:05;101036.69;;;3.88;100.00
20043;BME280;10182;52.896;6.496;2023-03-05T17:19:07;101028.91;;;3.83;100.00
20043;BME280;10182;52.896;6.496;2023-03-05T17:24:09;101023.88;;;3.69;100.00
20043;BME280;10182;52.896;6.496;2023-03-05T17:29:13;101019.56;;;3.62;100.00
20043;BME280;10182;52.896;6.496;2023-03-05T17:34:19;101018.88;;;3.51;100.00
20043;BME280;10182;52.896;6.496;2023-03-05T17:39:22;101026.81;;;3.45;100.00
20043;BME280;10182;52.896;6.496;2023-03-05T17:44:25;101018.25;;;3.30;100.00
20043;BME280;10182;52.896;6.496;2023-03-05T17:49:27;101014.84;;;3.22;100.00
20043;BME280;10182;52.896;6.496;2023-03-05T17:54:29;101015.00;;;3.10;100.00
20043;BME280;10182;52.896;6.496;2023-03-05T17:59:35;101015.13;;;2.97;100.00
20043;BME280;10182;52.896;6.496;2023-03-05T18:04:39;101016.09;;;2.90;100.00
20043;BME280;10182;52.896;6.496;2023-03-05T18:09:41;101008.34;;;2.81;100.00
20043;BME280;10182;52.896;6.496;2023-03-05T18:14:45;101005.78;;;2.73;100.00
20043;BME280;10182;52.896;6.496;2023-03-05T18:19:47;100998.88;;;2.67;100.00
20043;BME280;10182;52.896;6.496;2023-03-05T18:24:49;100996.31;;;2.60;100.00
20043;BME280;10182;52.896;6.496;2023-03-05T18:29:52;100990.34;;;2.48;100.00
20043;BME280;10182;52.896;6.496;2023-03-05T18:34:54;100993.88;;;2.43;100.00
20043;BME280;10182;52.896;6.496;2023-03-05T18:39:56;100977.38;;;2.34;100.00
20043;BME280;10182;52.896;6.496;2023-03-05T18:44:59;100976.53;;;2.31;100.00
20043;BME280;10182;52.896;6.496;2023-03-05T18:50:03;100978.38;;;2.19;100.00
20043;BME280;10182;52.896;6.496;2023-03-05T18:55:11;100957.50;;;2.18;100.00
20043;BME280;10182;52.896;6.496;2023-03-05T19:00:18;100960.13;;;2.12;100.00
20043;BME280;10182;52.896;6.496;2023-03-05T19:05:20;100962.81;;;2.07;100.00
20043;BME280;10182;52.896;6.496;2023-03-05T19:10:23;100958.47;;;2.03;100.00
20043;BME280;10182;52.896;6.496;2023-03-05T19:15:26;100944.56;;;1.99;100.00
20043;BME280;10182;52.896;6.496;2023-03-05T19:20:28;100953.34;;;1.91;100.00
20043;BME280;10182;52.896;6.496;2023-03-05T19:25:30;100943.84;;;1.83;100.00
20043;BME280;10182;52.896;6.496;2023-03-05T19:30:34;100948.19;;;1.80;100.00
20043;BME280;10182;52.896;6.496;2023-03-05T19:35:36;100940.41;;;1.72;100.00
20043;BME280;10182;52.896;6.496;2023-03-05T19:40:39;100935.28;;;1.63;100.00
20043;BME280;10182;52.896;6.496;2023-03-05T19:45:43;100925.72;;;1.59;100.00
20043;BME280;10182;52.896;6.496;2023-03-05T19:50:44;100924.03;;;1.50;100.00
20043;BME280;10182;52.896;6.496;2023-03-05T19:55:46;100914.47;;;1.47;100.00
20043;BME280;10182;52.896;6.496;2023-03-05T20:00:50;100912.72;;;1.45;100.00
20043;BME280;10182;52.896;6.496;2023-03-05T20:05:54;100900.56;;;1.41;100.00
20043;BME280;10182;52.896;6.496;2023-03-05T20:10:59;100898.88;;;1.35;100.00
20043;BME280;10182;52.896;6.496;2023-03-05T20:16:02;100894.56;;;1.28;100.00
20043;BME280;10182;52.896;6.496;2023-03-05T20:21:07;100885.97;;;1.15;100.00
20043;BME280;10182;52.896;6.496;2023-03-05T20:26:09;100880.81;;;1.03;100.00
20043;BME280;10182;52.896;6.496;2023-03-05T20:31:15;100873.03;;;0.93;100.00
20043;BME280;10182;52.896;6.496;2023-03-05T20:36:18;100860.88;;;0.89;100.00
20043;BME280;10182;52.896;6.496;2023-03-05T20:41:23;100865.25;;;0.79;100.00
20043;BME280;10182;52.896;6.496;2023-03-05T20:46:28;100868.75;;;0.72;100.00
20043;BME280;10182;52.896;6.496;2023-03-05T20:51:36;100860.06;;;0.70;100.00
20043;BME280;10182;52.896;6.496;2023-03-05T20:56:38;100852.25;;;0.64;100.00
20043;BME280;10182;52.896;6.496;2023-03-05T21:01:43;100845.34;;;0.64;100.00
20043;BME280;10182;52.896;6.496;2023-03-05T21:06:44;100836.63;;;0.65;100.00
20043;BME280;10182;52.896;6.496;2023-03-05T21:11:48;100818.38;;;0.67;100.00
20043;BME280;10182;52.896;6.496;2023-03-05T21:16:51;100823.59;;;0.62;100.00
20043;BME280;10182;52.896;6.496;2023-03-05T21:21:59;100820.13;;;0.65;100.00
20043;BME280;10182;52.896;6.496;2023-03-05T21:27:01;100817.47;;;0.68;100.00
20043;BME280;10182;52.896;6.496;2023-03-05T21:32:05;100810.53;;;0.64;100.00
20043;BME280;10182;52.896;6.496;2023-03-05T21:37:07;100805.34;;;0.62;100.00
20043;BME280;10182;52.896;6.496;2023-03-05T21:42:09;100810.53;;;0.69;100.00
20043;BME280;10182;52.896;6.496;2023-03-05T21:47:16;100795.78;;;0.63;100.00
20043;BME280;10182;52.896;6.496;2023-03-05T21:52:18;100792.28;;;0.64;100.00
20043;BME280;10182;52.896;6.496;2023-03-05T21:57:22;100780.16;;;0.64;100.00
20043;BME280;10182;52.896;6.496;2023-03-05T22:02:26;100777.53;;;0.64;100.00
20043;BME280;10182;52.896;6.496;2023-03-05T22:07:28;100785.34;;;0.67;100.00
20043;BME280;10182;52.896;6.496;2023-03-05T22:12:35;100768.81;;;0.65;100.00
20043;BME280;10182;52.896;6.496;2023-03-05T22:17:55;100748.81;;;0.69;100.00
20043;BME280;10182;52.896;6.496;2023-03-05T22:22:58;100737.53;;;0.69;100.00
20043;BME280;10182;52.896;6.496;2023-03-05T22:28:03;100738.34;;;0.74;100.00
20043;BME280;10182;52.896;6.496;2023-03-05T22:33:12;100737.47;;;0.78;100.00
20043;BME280;10182;52.896;6.496;2023-03-05T22:38:14;100739.19;;;0.79;100.00
20043;BME280;10182;52.896;6.496;2023-03-05T22:43:16;100711.41;;;0.75;100.00
20043;BME280;10182;52.896;6.496;2023-03-05T22:48:20;100701.03;;;0.69;100.00
20043;BME280;10182;52.896;6.496;2023-03-05T22:53:22;100688.03;;;0.62;100.00
20043;BME280;10182;52.896;6.496;2023-03-05T22:58:24;100682.81;;;0.62;100.00
20043;BME280;10182;52.896;6.496;2023-03-05T23:03:33;100669.81;;;0.56;100.00
20043;BME280;10182;52.896;6.496;2023-03-05T23:08:35;100682.03;;;0.48;100.00
20043;BME280;10182;52.896;6.496;2023-03-05T23:13:38;100677.66;;;0.53;100.00
20043;BME280;10182;52.896;6.496;2023-03-05T23:18:41;100667.28;;;0.47;100.00
20043;BME280;10182;52.896;6.496;2023-03-05T23:23:43;100663.78;;;0.49;100.00
20043;BME280;10182;52.896;6.496;2023-03-05T23:28:45;100663.75;;;0.53;100.00
20043;BME280;10182;52.896;6.496;2023-03-05T23:33:48;100656.81;;;0.50;100.00
20043;BME280;10182;52.896;6.496;2023-03-05T23:38:50;100651.59;;;0.56;100.00
20043;BME280;10182;52.896;6.496;2023-03-05T23:43:56;100652.38;;;0.63;100.00
20043;BME280;10182;52.896;6.496;2023-03-05T23:49:00;100645.47;;;0.60;100.00
20043;BME280;10182;52.896;6.496;2023-03-05T23:54:02;100633.25;;;0.65;100.00
20043;BME280;10182;52.896;6.496;2023-03-05T23:59:06;100630.59;;;0.72;100.00
